Time;durP1;ratioP1;P1;durP2;ratioP2;P2;SDS_P1;SDS_P2;PMS_P1;PMS_P2;Temp;Humidity;BMP_temperature;BMP_pressure;BME280_temperature;BME280_humidity;BME280_pressure;Samples;Min_cycle;Max_cycle;Signal;HPM_P1;HPM_P2
2023/01/11 07:46:57;;;;;;;;;21.67;20.00;;;;;;;;5103203;27;13461;-68
2023/01/11 07:49:23;;;;;;;;;24.00;24.00;;;;;;;;5103054;28;13526;-68
2023/01/11 07:51:50;;;;;;;;;28.00;23.00;;;;;;;;5102939;28;13556;-68
2023/01/11 07:54:16;;;;;;;;;32.00;24.00;;;;;;;;5102964;28;13579;-67
2023/01/11 11:10:51;;;;;;;;;;;;;;;;;;5088622;27;13431;-67
2023/01/11 11:13:22;;;;;;;;;34.00;30.67;;;;;;;;5086659;28;7536;-67
2023/01/11 11:15:49;;;;;;;;;;;;;;;;;;5089654;28;9136;-67
2023/01/11 11:18:14;;;;;;;;;31.33;30.33;;;;;;;;5086894;28;9542;-67
2023/01/11 11:20:42;;;;;;;;;37.00;33.33;;;;;;;;5083154;28;13493;-67
2023/01/11 11:23:07;;;;;;;;;;;;;;;;;;5088948;28;8800;-66
2023/01/11 11:25:33;;;;;;;;;;;;;;;;;;5088130;28;7601;-66
2023/01/11 11:28:23;;;;;;;;;32.25;26.00;;;;;;;;5102042;28;7528;-67
2023/01/11 11:30:51;;;;;;;;;30.00;28.50;;;;;;;;5086409;28;8796;-66
2023/01/11 11:33:36;;;;;;;;;35.40;32.80;;;;;;;;5082569;28;13444;-67
2023/01/11 11:36:03;;;;;;;;;37.75;33.75;;;;;;;;5082202;28;13481;-66
2023/01/11 11:38:30;;;;;;;;;34.80;32.60;;;;;;;;5082316;28;13473;-66
2023/01/11 11:41:18;;;;;;;;;37.50;35.00;;;;;;;;5082661;28;13477;-66
2023/01/11 11:43:44;;;;;;;;;36.50;34.00;;;;;;;;5082123;28;13499;-66
2023/01/11 11:46:13;;;;;;;;;36.75;34.75;;;;;;;;5082371;28;13511;-66
2023/01/11 11:48:38;;;;;;;;;34.00;32.60;;;;;;;;5082430;28;13503;-66
2023/01/11 11:51:05;;;;;;;;;29.75;29.00;;;;;;;;5082465;28;13496;-66
2023/01/11 11:53:36;;;;;;;;;36.25;29.75;;;;;;;;5082249;28;13461;-66
2023/01/11 11:56:06;;;;;;;;;31.80;29.40;;;;;;;;5063817;28;13516;-66
2023/01/11 11:58:32;;;;;;;;;29.20;27.20;;;;;;;;5082136;28;13650;-66
2023/01/11 12:00:57;;;;;;;;;33.50;30.25;;;;;;;;5082072;28;13499;-66
2023/01/11 12:03:23;;;;;;;;;;;;;;;;;;5087950;28;8812;-66
2023/01/11 12:05:48;;;;;;;;;;;;;;;;;;5103095;28;7513;-66
2023/01/11 12:08:13;;;;;;;;;26.00;22.25;;;;;;;;5085739;28;8789;-66
2023/01/11 12:10:46;;;;;;;;;29.50;27.50;;;;;;;;5082105;28;13500;-66
2023/01/11 12:13:24;;;;;;;;;34.75;34.00;;;;;;;;5082048;28;13513;-66
2023/01/11 12:16:00;;;;;;;;;28.80;28.80;;;;;;;;5082060;28;13604;-66
2023/01/11 12:18:29;;;;;;;;;30.50;25.00;;;;;;;;5082153;28;13489;-66
2023/01/11 12:20:54;;;;;;;;;26.00;22.25;;;;;;;;5078617;28;11485;-67
2023/01/11 12:23:20;;;;;;;;;;;;;;;;;;5074353;28;11451;-67
2023/01/11 12:25:45;;;;;;;;;;;;;;;;;;5073607;28;7523;-66
2023/01/11 12:28:10;;;;;;;;;;;;;;;;;;5073597;28;7983;-66
2023/01/11 12:30:35;;;;;;;;;;;;;;;;;;5073509;28;7533;-66
2023/01/11 12:33:04;;;;;;;;;22.20;21.40;;;;;;;;5071765;28;7548;-66
2023/01/11 12:35:30;;;;;;;;;;;;;;;;;;5074306;28;8976;-67
2023/01/11 12:37:55;;;;;;;;;;;;;;;;;;5072877;28;7525;-67
2023/01/11 12:40:20;;;;;;;;;;;;;;;;;;5074477;28;9510;-67
2023/01/11 12:42:45;;;;;;;;;;;;;;;;;;5089095;28;7520;-67
2023/01/11 12:45:10;;;;;;;;;;;;;;;;;;5088765;28;7540;-67
2023/01/11 12:47:48;;;;;;;;;30.00;26.00;;;;;;;;5071392;28;7524;-66
2023/01/11 12:50:13;;;;;;;;;;;;;;;;;;5074187;28;8828;-66
2023/01/11 12:52:38;;;;;;;;;;;;;;;;;;5073342;28;7543;-66
2023/01/11 12:55:03;;;;;;;;;26.50;25.75;;;;;;;;5070568;28;7543;-66
2023/01/11 12:58:09;;;;;;;;;27.25;25.25;;;;;;;;5071285;28;8788;-66
2023/01/11 13:00:34;;;;;;;;;;;;;;;;;;5074000;28;8834;-66
2023/01/11 13:03:17;;;;;;;;;27.50;24.00;;;;;;;;5071322;28;8800;-66
2023/01/11 13:05:43;;;;;;;;;33.33;32.00;;;;;;;;5067740;28;13440;-67
2023/01/11 13:08:09;;;;;;;;;;;;;;;;;;5073644;28;8781;-67
2023/01/11 13:10:34;;;;;;;;;;;;;;;;;;5072773;28;7971;-67
2023/01/11 13:12:59;;;;;;;;;;;;;;;;;;5072485;28;8121;-65
2023/01/11 13:15:24;;;;;;;;;;;;;;;;;;5073046;28;7535;-67
2023/01/11 13:17:49;;;;;;;;;;;;;;;;;;5072882;28;7528;-67
2023/01/11 13:20:14;;;;;;;;;;;;;;;;;;5072645;28;7529;-66
2023/01/11 13:22:39;;;;;;;;;;;;;;;;;;5072633;28;7520;-65
2023/01/11 13:25:04;;;;;;;;;;;;;;;;;;5072376;28;7975;-66
2023/01/11 13:27:30;;;;;;;;;;;;;;;;;;5072759;28;7532;-65
2023/01/11 13:29:55;;;;;;;;;;;;;;;;;;5072588;28;7532;-67
2023/01/11 13:32:21;;;;;;;;;;;;;;;;;;5071363;28;7536;-66
2023/01/11 13:34:46;;;;;;;;;;;;;;;;;;5054271;28;7520;-65
2023/01/11 13:37:11;;;;;;;;;;;;;;;;;;5073321;28;8906;-66
2023/01/11 13:39:36;;;;;;;;;;;;;;;;;;5071862;28;7590;-67
2023/01/11 13:42:02;;;;;;;;;;;;;;;;;;5072219;28;7536;-67
2023/01/11 20:30:57;;;;;;;;;68.25;55.00;;;;;;;;5103378;27;13491;-66
2023/01/11 20:33:23;;;;;;;;;69.00;56.50;;;;;;;;5102834;28;13655;-66
2023/01/11 20:35:48;;;;;;;;;71.00;56.75;;;;;;;;5103205;28;13544;-68
2023/01/11 20:38:14;;;;;;;;;68.75;55.25;;;;;;;;5102650;28;14418;-67
2023/01/11 20:40:39;;;;;;;;;71.75;57.50;;;;;;;;5101299;28;13655;-67
2023/01/11 20:43:05;;;;;;;;;69.67;56.33;;;;;;;;5096046;28;13659;-66
2023/01/11 20:45:31;;;;;;;;;262.50;232.75;;;;;;;;5099905;28;13606;-67
2023/01/11 20:47:59;;;;;;;;;117.75;103.25;;;;;;;;5101689;28;13633;-69
2023/01/11 20:50:24;;;;;;;;;69.75;56.50;;;;;;;;5100868;28;13706;-68
2023/01/11 20:52:50;;;;;;;;;71.00;57.00;;;;;;;;5101129;28;13539;-68
2023/01/11 20:55:15;;;;;;;;;68.50;56.00;;;;;;;;5102215;28;13639;-68
2023/01/11 20:57:43;;;;;;;;;69.67;55.67;;;;;;;;5102276;28;13440;-68
2023/01/11 21:00:09;;;;;;;;;65.25;53.75;;;;;;;;5102179;28;13590;-70
2023/01/11 21:02:35;;;;;;;;;71.00;57.00;;;;;;;;5102221;28;13538;-69
2023/01/11 21:05:03;;;;;;;;;66.40;54.20;;;;;;;;5102264;28;13527;-68
2023/01/11 21:07:28;;;;;;;;;69.50;54.25;;;;;;;;5094243;28;13530;-67
2023/01/11 21:09:54;;;;;;;;;65.50;52.00;;;;;;;;5086207;28;13623;-67
2023/01/11 21:12:19;;;;;;;;;70.50;55.75;;;;;;;;5081749;28;13563;-66
2023/01/11 21:14:44;;;;;;;;;68.75;55.25;;;;;;;;5081361;28;13697;-67
2023/01/11 21:17:10;;;;;;;;;66.50;55.00;;;;;;;;5081283;28;13656;-66
2023/01/11 21:19:35;;;;;;;;;65.00;54.50;;;;;;;;5081982;28;15079;-68
2023/01/11 21:22:00;;;;;;;;;68.25;54.50;;;;;;;;5081798;28;13556;-66
2023/01/11 21:24:26;;;;;;;;;66.75;53.25;;;;;;;;5080308;28;13552;-68
2023/01/11 21:26:51;;;;;;;;;65.00;53.00;;;;;;;;5080167;28;13551;-66
2023/01/11 21:29:16;;;;;;;;;64.33;53.00;;;;;;;;5081219;28;13578;-66
2023/01/11 21:31:41;;;;;;;;;67.00;54.33;;;;;;;;5081284;28;15130;-66
2023/01/11 21:34:08;;;;;;;;;69.33;55.00;;;;;;;;5081472;28;13528;-66
2023/01/11 21:36:34;;;;;;;;;68.00;55.00;;;;;;;;5080025;28;13596;-65
2023/01/11 21:38:59;;;;;;;;;62.00;51.75;;;;;;;;5081542;28;13562;-66
2023/01/11 21:44:10;;;;;;;;;63.25;51.00;;;;;;;;5067806;28;13553;-66
2023/01/11 21:46:36;;;;;;;;;62.40;49.80;;;;;;;;5068162;28;13520;-66
2023/01/11 21:49:01;;;;;;;;;64.50;52.00;;;;;;;;5067949;28;13586;-66
2023/01/11 21:51:28;;;;;;;;;67.00;52.25;;;;;;;;5067736;28;13549;-65
2023/01/11 21:53:54;;;;;;;;;69.50;56.25;;;;;;;;5066393;28;14399;-66
2023/01/11 21:56:19;;;;;;;;;66.00;54.50;;;;;;;;5067845;28;13550;-66
2023/01/11 21:58:45;;;;;;;;;67.25;54.50;;;;;;;;5067390;28;13656;-66
2023/01/11 22:01:10;;;;;;;;;65.75;53.50;;;;;;;;5067426;28;13679;-66
2023/01/11 22:03:36;;;;;;;;;69.50;55.00;;;;;;;;5067363;28;14751;-66
2023/01/11 22:06:02;;;;;;;;;70.25;55.00;;;;;;;;5067619;28;13561;-66
2023/01/11 22:08:27;;;;;;;;;65.00;53.00;;;;;;;;5067552;28;14408;-66
2023/01/11 22:10:59;;;;;;;;;66.50;53.25;;;;;;;;5065926;28;13700;-65
2023/01/11 22:13:27;;;;;;;;;65.40;52.00;;;;;;;;5067306;28;13597;-67
2023/01/11 22:15:53;;;;;;;;;66.00;52.00;;;;;;;;5067487;28;14301;-67
2023/01/11 22:18:19;;;;;;;;;68.25;55.00;;;;;;;;5067178;28;13672;-65
2023/01/11 22:20:44;;;;;;;;;75.00;59.00;;;;;;;;5065828;28;13716;-66
2023/01/11 22:23:09;;;;;;;;;68.25;55.50;;;;;;;;5067251;28;14475;-66
2023/01/11 22:25:35;;;;;;;;;70.33;54.33;;;;;;;;5067059;28;13552;-66
2023/01/11 22:28:00;;;;;;;;;71.50;56.00;;;;;;;;5067001;28;13582;-66
2023/01/11 22:30:25;;;;;;;;;68.00;56.50;;;;;;;;5066788;28;14448;-66
2023/01/11 22:32:51;;;;;;;;;68.00;53.33;;;;;;;;5066790;28;13554;-67
2023/01/11 22:35:16;;;;;;;;;72.00;57.50;;;;;;;;5066986;28;13573;-65
2023/01/11 22:37:41;;;;;;;;;68.00;54.50;;;;;;;;5065237;28;13745;-66
2023/01/11 22:40:07;;;;;;;;;70.00;54.67;;;;;;;;5066665;28;13559;-66
2023/01/11 22:42:32;;;;;;;;;67.75;54.00;;;;;;;;5066546;28;14331;-66
2023/01/11 22:44:57;;;;;;;;;69.75;57.00;;;;;;;;5066583;28;13660;-66
2023/01/11 22:47:23;;;;;;;;;67.50;55.75;;;;;;;;5066584;28;13522;-66
2023/01/11 22:49:52;;;;;;;;;70.50;56.50;;;;;;;;5066156;28;13585;-66
2023/01/11 22:52:18;;;;;;;;;68.25;54.50;;;;;;;;5065472;28;13583;-66
2023/01/11 22:54:43;;;;;;;;;69.50;54.75;;;;;;;;5066241;28;13573;-65
2023/01/11 22:57:08;;;;;;;;;72.00;56.50;;;;;;;;5066206;28;13659;-66
2023/01/11 22:59:33;;;;;;;;;68.00;54.50;;;;;;;;5066236;28;13662;-65
2023/01/11 23:01:59;;;;;;;;;66.67;54.33;;;;;;;;5066159;28;13527;-66
2023/01/11 23:04:24;;;;;;;;;72.67;56.00;;;;;;;;5066107;28;13594;-66
2023/01/11 23:06:49;;;;;;;;;67.67;54.00;;;;;;;;5066181;28;13609;-66
2023/01/11 23:09:15;;;;;;;;;67.50;55.50;;;;;;;;5065926;28;14630;-66
2023/01/11 23:14:31;;;;;;;;;69.67;53.33;;;;;;;;5065958;28;13658;-65
2023/01/11 23:17:06;;;;;;;;;72.80;58.00;;;;;;;;5065883;28;13488;-66
